Time;durP1;ratioP1;P1;durP2;ratioP2;P2;SDS_P1;SDS_P2;PMS_P1;PMS_P2;Temp;Humidity;BMP_temperature;BMP_pressure;BME280_temperature;BME280_humidity;BME280_pressure;Samples;Min_cycle;Max_cycle;Signal;HPM_P1;HPM_P2
2022/11/09 00:00:00;;;;;;;4.07;1.85;;;;;;;;;;512540;28;1165;-61
2022/11/09 00:00:16;;;;;;;3.57;2.00;;;;;;;;;;511271;28;1539;-62
2022/11/09 00:00:32;;;;;;;4.25;2.08;;;;;;;;;;513313;28;1520;-61
2022/11/09 00:00:47;;;;;;;3.77;1.90;;;;;;;;;;512627;28;1263;-61
2022/11/09 00:01:03;;;;;;;3.00;2.00;;;;;;;;;;513172;28;1362;-61
2022/11/09 00:01:19;;;;;;;3.65;2.00;;;;;;;;;;515173;28;1462;-62
2022/11/09 00:01:36;;;;;;;4.05;2.10;;;;;;;;;;516015;28;1477;-62
2022/11/09 00:01:51;;;;;;;3.67;2.10;;;;;;;;;;516968;28;1497;-61
2022/11/09 00:02:06;;;;;;;3.35;1.90;;;;;;;;;;517078;28;1101;-61
2022/11/09 00:02:22;;;;;;;4.03;1.70;;;;;;;;;;520255;28;1403;-61
2022/11/09 00:02:37;;;;;;;4.90;1.83;;;;;;;;;;520271;28;1347;-62
2022/11/09 00:02:54;;;;;;;3.78;1.80;;;;;;;;;;517525;28;1454;-62
2022/11/09 00:03:10;;;;;;;4.47;1.80;;;;;;;;;;517688;28;1396;-61
2022/11/09 00:03:25;;;;;;;4.97;2.00;;;;;;;;;;518589;28;1380;-61
2022/11/09 00:03:40;;;;;;;4.30;1.98;;;;;;;;;;518666;28;1416;-62
2022/11/09 00:04:03;;;;;;;4.23;2.00;;;;;;;;;;521959;28;1339;-61
2022/11/09 00:04:18;;;;;;;4.80;2.03;;;;;;;;;;522364;28;1938;-61
2022/11/09 00:04:34;;;;;;;5.07;2.03;;;;;;;;;;522881;28;1421;-62
2022/11/09 00:04:49;;;;;;;4.90;1.90;;;;;;;;;;524237;28;1279;-62
2022/11/09 00:05:05;;;;;;;4.53;1.95;;;;;;;;;;523359;27;1175;-61
2022/11/09 00:05:20;;;;;;;3.55;2.00;;;;;;;;;;524669;28;1429;-61
2022/11/09 00:05:35;;;;;;;3.10;1.87;;;;;;;;;;524135;28;1390;-62
2022/11/09 00:05:57;;;;;;;2.97;1.70;;;;;;;;;;522659;28;1485;-61
2022/11/09 00:06:13;;;;;;;4.25;1.77;;;;;;;;;;523903;27;1415;-62
2022/11/09 00:06:30;;;;;;;3.78;1.80;;;;;;;;;;524834;27;1461;-61
2022/11/09 00:06:45;;;;;;;3.58;1.77;;;;;;;;;;521978;28;1485;-61
2022/11/09 00:07:01;;;;;;;4.43;1.90;;;;;;;;;;523121;28;1072;-61
2022/11/09 00:07:16;;;;;;;4.10;1.90;;;;;;;;;;520713;28;1829;-62
2022/11/09 00:07:31;;;;;;;4.07;1.80;;;;;;;;;;518330;28;1431;-61
2022/11/09 00:07:46;;;;;;;4.87;2.07;;;;;;;;;;517610;28;1220;-61
2022/11/09 00:08:06;;;;;;;4.90;2.10;;;;;;;;;;517599;28;1175;-60
2022/11/09 00:08:21;;;;;;;4.72;2.00;;;;;;;;;;519187;28;2315;-61
2022/11/09 00:08:37;;;;;;;4.73;1.87;;;;;;;;;;520141;28;1419;-61
2022/11/09 00:08:52;;;;;;;4.55;1.90;;;;;;;;;;516883;28;1460;-61
2022/11/09 00:09:08;;;;;;;4.00;1.87;;;;;;;;;;518498;28;1281;-61
2022/11/09 00:09:23;;;;;;;4.28;1.90;;;;;;;;;;520004;28;1400;-61
2022/11/09 00:09:39;;;;;;;3.80;2.00;;;;;;;;;;521452;28;1416;-62
2022/11/09 00:09:54;;;;;;;3.53;1.80;;;;;;;;;;522648;28;1233;-62
2022/11/09 00:10:09;;;;;;;4.33;1.97;;;;;;;;;;522002;28;1227;-61
2022/11/09 00:10:25;;;;;;;5.27;2.10;;;;;;;;;;524866;27;1464;-61
2022/11/09 00:10:40;;;;;;;4.07;1.83;;;;;;;;;;522809;28;1284;-62
2022/11/09 00:11:02;;;;;;;3.07;1.80;;;;;;;;;;521747;28;1374;-62
2022/11/09 00:11:18;;;;;;;3.13;1.80;;;;;;;;;;523422;28;1426;-62
2022/11/09 00:11:33;;;;;;;3.72;1.80;;;;;;;;;;522826;28;1454;-62
2022/11/09 00:11:48;;;;;;;4.17;2.03;;;;;;;;;;520315;28;1517;-61
2022/11/09 00:12:06;;;;;;;4.17;2.17;;;;;;;;;;520509;28;1196;-61
2022/11/09 00:12:21;;;;;;;3.75;1.88;;;;;;;;;;520659;28;1397;-62
2022/11/09 00:12:36;;;;;;;5.03;1.80;;;;;;;;;;523186;28;1400;-61
2022/11/09 00:12:51;;;;;;;5.30;1.90;;;;;;;;;;523517;28;1170;-61
2022/11/09 00:13:07;;;;;;;4.20;1.97;;;;;;;;;;522764;28;1382;-61
2022/11/09 00:13:22;;;;;;;4.82;2.03;;;;;;;;;;522111;28;1180;-61
2022/11/09 00:13:39;;;;;;;4.60;2.10;;;;;;;;;;523209;28;1458;-61
2022/11/09 00:13:54;;;;;;;3.42;1.90;;;;;;;;;;522447;28;1217;-61
2022/11/09 00:14:16;;;;;;;3.07;1.73;;;;;;;;;;522639;28;1073;-61
2022/11/09 00:14:32;;;;;;;2.97;1.80;;;;;;;;;;522888;28;1163;-61
2022/11/09 00:14:48;;;;;;;2.85;1.80;;;;;;;;;;521336;28;1408;-61
2022/11/09 00:15:03;;;;;;;3.97;1.77;;;;;;;;;;520159;28;1358;-62
2022/11/09 00:15:18;;;;;;;3.70;1.80;;;;;;;;;;520706;28;2612;-61
2022/11/09 00:15:34;;;;;;;3.65;1.75;;;;;;;;;;521314;28;1517;-62
2022/11/09 00:15:49;;;;;;;5.13;1.70;;;;;;;;;;520692;28;1117;-61
2022/11/09 00:16:06;;;;;;;4.20;1.80;;;;;;;;;;523165;28;1389;-62
2022/11/09 00:16:21;;;;;;;3.15;1.70;;;;;;;;;;523049;28;1545;-61
2022/11/09 00:16:37;;;;;;;3.60;1.73;;;;;;;;;;520664;28;1287;-62
2022/11/09 00:16:52;;;;;;;4.38;1.80;;;;;;;;;;521571;28;1593;-61
2022/11/09 00:17:07;;;;;;;4.37;1.70;;;;;;;;;;521919;28;2563;-61
2022/11/09 00:17:22;;;;;;;4.57;1.80;;;;;;;;;;521850;28;1269;-62
2022/11/09 00:17:38;;;;;;;4.97;2.00;;;;;;;;;;524701;27;1362;-62
2022/11/09 00:17:53;;;;;;;3.90;1.80;;;;;;;;;;522970;28;1287;-62
2022/11/09 00:18:08;;;;;;;4.47;1.70;;;;;;;;;;523203;27;1186;-61
2022/11/09 00:18:24;;;;;;;4.97;1.80;;;;;;;;;;522764;28;1187;-61
2022/11/09 00:18:44;;;;;;;5.15;1.90;;;;;;;;;;522974;28;1182;-62
2022/11/09 00:18:59;;;;;;;4.03;1.83;;;;;;;;;;523852;27;1116;-61
2022/11/09 00:19:15;;;;;;;3.58;1.98;;;;;;;;;;525720;27;1219;-62
2022/11/09 00:19:30;;;;;;;4.30;1.93;;;;;;;;;;523496;28;1121;-62
2022/11/09 00:19:45;;;;;;;3.87;1.80;;;;;;;;;;524279;27;1376;-62
2022/11/09 00:20:00;;;;;;;3.50;1.70;;;;;;;;;;522339;28;1636;-63
2022/11/09 00:20:16;;;;;;;2.92;1.60;;;;;;;;;;523063;28;1149;-60
2022/11/09 00:20:31;;;;;;;3.47;1.70;;;;;;;;;;523849;28;1156;-61
2022/11/09 00:20:46;;;;;;;4.03;1.80;;;;;;;;;;523449;27;1275;-62
2022/11/09 00:21:09;;;;;;;4.10;1.80;;;;;;;;;;522740;28;1347;-61
2022/11/09 00:21:24;;;;;;;3.80;1.80;;;;;;;;;;521101;28;1398;-61
2022/11/09 00:21:40;;;;;;;3.83;1.80;;;;;;;;;;520898;28;1682;-61
2022/11/09 00:21:55;;;;;;;4.07;1.77;;;;;;;;;;518624;28;1438;-61
2022/11/09 00:22:11;;;;;;;4.03;1.80;;;;;;;;;;520700;28;1542;-61
2022/11/09 00:22:26;;;;;;;4.93;2.00;;;;;;;;;;520083;28;1221;-61
2022/11/09 00:22:41;;;;;;;5.00;2.00;;;;;;;;;;520845;28;1345;-61
2022/11/09 00:22:57;;;;;;;4.73;1.80;;;;;;;;;;522432;28;1136;-61
2022/11/09 00:23:12;;;;;;;4.70;1.77;;;;;;;;;;521452;28;1235;-60
2022/11/09 00:23:27;;;;;;;3.17;1.67;;;;;;;;;;524522;27;1410;-61
2022/11/09 00:23:43;;;;;;;3.30;1.70;;;;;;;;;;525476;27;1061;-61
2022/11/09 00:23:59;;;;;;;4.60;1.83;;;;;;;;;;527883;27;1384;-61
2022/11/09 00:24:14;;;;;;;3.97;1.95;;;;;;;;;;527155;27;1917;-61
2022/11/09 00:24:29;;;;;;;3.50;1.83;;;;;;;;;;526901;27;1307;-61
2022/11/09 00:24:45;;;;;;;3.70;1.80;;;;;;;;;;526981;27;1588;-61
2022/11/09 00:25:00;;;;;;;3.17;1.77;;;;;;;;;;525759;27;1198;-61
2022/11/09 00:25:16;;;;;;;3.87;1.90;;;;;;;;;;527332;27;1417;-61
2022/11/09 00:25:31;;;;;;;3.97;2.00;;;;;;;;;;526497;27;1613;-60
2022/11/09 00:25:47;;;;;;;3.47;2.00;;;;;;;;;;527165;27;1520;-61
2022/11/09 00:26:04;;;;;;;3.47;1.90;;;;;;;;;;523639;28;1533;-61
2022/11/09 00:26:20;;;;;;;3.38;1.92;;;;;;;;;;521945;28;1376;-61
2022/11/09 00:26:35;;;;;;;3.42;1.98;;;;;;;;;;522525;28;1212;-60
2022/11/09 00:26:50;;;;;;;3.80;1.97;;;;;;;;;;522655;28;1355;-61
2022/11/09 00:27:06;;;;;;;4.35;2.00;;;;;;;;;;523060;28;1402;-60
2022/11/09 00:27:21;;;;;;;3.93;1.90;;;;;;;;;;520235;28;1167;-61
2022/11/09 00:27:36;;;;;;;2.97;1.93;;;;;;;;;;518760;28;1451;-61
2022/11/09 00:27:52;;;;;;;3.50;2.10;;;;;;;;;;517279;28;1177;-61
2022/11/09 00:28:07;;;;;;;4.22;1.98;;;;;;;;;;520717;28;1391;-61
2022/11/09 00:28:22;;;;;;;3.50;1.80;;;;;;;;;;522483;28;1442;-60
2022/11/09 00:28:38;;;;;;;3.30;2.00;;;;;;;;;;523112;28;1291;-61
2022/11/09 00:28:53;;;;;;;3.28;2.10;;;;;;;;;;519083;28;1390;-61
2022/11/09 00:29:08;;;;;;;3.90;2.10;;;;;;;;;;520276;28;1344;-61
2022/11/09 00:29:23;;;;;;;3.93;2.10;;;;;;;;;;518927;28;1351;-60
2022/11/09 00:29:39;;;;;;;2.85;2.08;;;;;;;;;;519356;28;1206;-61
2022/11/09 00:29:54;;;;;;;4.30;2.10;;;;;;;;;;520775;28;1111;-61
2022/11/09 00:30:10;;;;;;;5.10;2.20;;;;;;;;;;520225;28;1079;-61
2022/11/09 00:30:26;;;;;;;4.40;2.35;;;;;;;;;;521404;28;1376;-61
2022/11/09 00:30:41;;;;;;;4.03;2.05;;;;;;;;;;520756;28;1411;-61
2022/11/09 00:31:01;;;;;;;3.65;2.13;;;;;;;;;;520449;27;1228;-61
2022/11/09 00:31:19;;;;;;;4.50;2.17;;;;;;;;;;523239;28;1379;-61
2022/11/09 00:31:34;;;;;;;4.45;1.92;;;;;;;;;;524232;28;1141;-61
2022/11/09 00:31:50;;;;;;;4.00;2.08;;;;;;;;;;521472;28;2578;-60
2022/11/09 00:32:05;;;;;;;4.03;2.10;;;;;;;;;;522295;28;1240;-60
2022/11/09 00:32:20;;;;;;;3.40;2.10;;;;;;;;;;521127;28;1383;-61
2022/11/09 00:32:36;;;;;;;3.55;2.10;;;;;;;;;;521086;28;1196;-60
2022/11/09 00:32:51;;;;;;;4.17;2.00;;;;;;;;;;519639;28;1529;-61
2022/11/09 00:33:07;;;;;;;4.10;2.00;;;;;;;;;;518500;28;1200;-61
2022/11/09 00:33:22;;;;;;;3.35;2.00;;;;;;;;;;520774;28;1351;-61
2022/11/09 00:33:38;;;;;;;5.07;2.10;;;;;;;;;;521059;28;1466;-61
2022/11/09 00:33:55;;;;;;;5.60;2.13;;;;;;;;;;519750;28;1935;-61
2022/11/09 00:34:10;;;;;;;4.68;2.22;;;;;;;;;;522569;28;1169;-61
2022/11/09 00:34:26;;;;;;;4.30;2.20;;;;;;;;;;524972;28;1390;-61
2022/11/09 00:34:42;;;;;;;4.00;2.10;;;;;;;;;;523108;28;1363;-61
2022/11/09 00:34:58;;;;;;;4.10;2.10;;;;;;;;;;521541;28;1227;-61
2022/11/09 00:35:13;;;;;;;3.73;2.20;;;;;;;;;;519627;28;1321;-61
2022/11/09 00:35:28;;;;;;;3.97;2.15;;;;;;;;;;520280;28;1934;-61
2022/11/09 00:35:44;;;;;;;3.77;2.20;;;;;;;;;;518905;28;1387;-61
2022/11/09 00:36:06;;;;;;;4.13;2.33;;;;;;;;;;518921;28;1348;-61
2022/11/09 00:36:24;;;;;;;4.10;2.30;;;;;;;;;;519283;28;1423;-61
2022/11/09 00:36:39;;;;;;;3.63;2.13;;;;;;;;;;519544;28;1213;-61
2022/11/09 00:36:54;;;;;;;4.13;2.03;;;;;;;;;;521870;28;1133;-61
2022/11/09 00:37:09;;;;;;;4.07;2.00;;;;;;;;;;520360;28;1572;-61
2022/11/09 00:37:25;;;;;;;4.03;1.97;;;;;;;;;;521916;28;1450;-61
2022/11/09 00:37:40;;;;;;;3.67;2.00;;;;;;;;;;522838;28;1371;-61
2022/11/09 00:37:55;;;;;;;3.07;2.10;;;;;;;;;;519555;28;1400;-61
2022/11/09 00:38:11;;;;;;;3.28;2.00;;;;;;;;;;520143;28;1176;-61
2022/11/09 00:38:26;;;;;;;3.37;2.00;;;;;;;;;;521764;28;1459;-61
2022/11/09 00:38:41;;;;;;;3.50;2.10;;;;;;;;;;520718;28;1406;-61
2022/11/09 00:38:59;;;;;;;4.07;2.00;;;;;;;;;;518975;28;1346;-61
2022/11/09 00:39:14;;;;;;;5.10;2.10;;;;;;;;;;519609;28;1149;-62
2022/11/09 00:39:29;;;;;;;5.00;2.15;;;;;;;;;;519225;28;1443;-61
2022/11/09 00:39:45;;;;;;;4.03;2.10;;;;;;;;;;520263;28;1360;-61
2022/11/09 00:40:00;;;;;;;3.80;2.13;;;;;;;;;;519256;28;1170;-61
2022/11/09 00:40:15;;;;;;;3.60;2.10;;;;;;;;;;519360;28;1833;-60
2022/11/09 00:40:30;;;;;;;3.65;2.17;;;;;;;;;;519850;28;1141;-61
2022/11/09 00:40:46;;;;;;;4.10;2.07;;;;;;;;;;519359;28;1392;-61
2022/11/09 00:41:04;;;;;;;4.57;2.10;;;;;;;;;;520952;28;1356;-62
2022/11/09 00:41:20;;;;;;;4.72;2.20;;;;;;;;;;519773;28;1090;-60
2022/11/09 00:41:35;;;;;;;3.90;2.10;;;;;;;;;;520009;28;1525;-61
2022/11/09 00:41:50;;;;;;;3.63;2.15;;;;;;;;;;521136;28;1288;-61
2022/11/09 00:42:06;;;;;;;4.40;2.23;;;;;;;;;;522333;28;1078;-61
2022/11/09 00:42:21;;;;;;;4.87;2.23;;;;;;;;;;520395;28;1374;-60
2022/11/09 00:42:36;;;;;;;4.90;2.10;;;;;;;;;;518582;28;1389;-60
2022/11/09 00:42:52;;;;;;;4.23;2.20;;;;;;;;;;520564;28;1270;-61
2022/11/09 00:43:07;;;;;;;4.13;2.20;;;;;;;;;;520646;28;1356;-61
2022/11/09 00:43:22;;;;;;;4.17;2.13;;;;;;;;;;521519;28;1431;-61
2022/11/09 00:43:38;;;;;;;4.55;2.10;;;;;;;;;;520246;28;1121;-61
2022/11/09 00:43:53;;;;;;;4.53;2.07;;;;;;;;;;519354;28;1204;-60
2022/11/09 00:44:08;;;;;;;4.67;2.03;;;;;;;;;;519100;28;1480;-61
2022/11/09 00:44:23;;;;;;;4.72;2.13;;;;;;;;;;521862;28;2046;-61
2022/11/09 00:44:39;;;;;;;4.60;2.27;;;;;;;;;;523474;28;1434;-61
2022/11/09 00:44:54;;;;;;;4.37;2.27;;;;;;;;;;523255;28;1157;-60
2022/11/09 00:45:09;;;;;;;4.13;2.20;;;;;;;;;;520780;28;1202;-61
2022/11/09 00:45:25;;;;;;;4.35;2.10;;;;;;;;;;521068;28;1442;-61
2022/11/09 00:45:40;;;;;;;3.67;2.13;;;;;;;;;;519460;28;1403;-61
2022/11/09 00:45:56;;;;;;;3.55;2.10;;;;;;;;;;519155;28;1467;-61
2022/11/09 00:46:11;;;;;;;3.53;2.10;;;;;;;;;;519717;28;1169;-61
2022/11/09 00:46:27;;;;;;;4.45;2.13;;;;;;;;;;520573;28;1451;-61
2022/11/09 00:46:42;;;;;;;4.50;2.03;;;;;;;;;;519164;28;1440;-61
2022/11/09 00:46:57;;;;;;;4.60;2.10;;;;;;;;;;520558;28;1511;-61
2022/11/09 00:47:12;;;;;;;4.40;2.10;;;;;;;;;;521466;28;1384;-61
2022/11/09 00:47:28;;;;;;;3.60;2.00;;;;;;;;;;518729;28;1205;-60
2022/11/09 00:47:43;;;;;;;3.40;2.00;;;;;;;;;;523997;28;1414;-62
2022/11/09 00:47:58;;;;;;;4.22;2.10;;;;;;;;;;524748;28;1390;-61
2022/11/09 00:48:14;;;;;;;4.43;2.10;;;;;;;;;;524854;27;1339;-60
2022/11/09 00:48:29;;;;;;;3.33;1.90;;;;;;;;;;523852;28;1398;-61
2022/11/09 00:48:45;;;;;;;3.33;1.93;;;;;;;;;;520115;28;2078;-61
2022/11/09 00:49:00;;;;;;;4.85;2.10;;;;;;;;;;522885;28;1426;-62
2022/11/09 00:49:15;;;;;;;5.32;2.10;;;;;;;;;;523035;28;1419;-61
2022/11/09 00:49:30;;;;;;;3.63;2.07;;;;;;;;;;523544;28;1651;-61
2022/11/09 00:49:46;;;;;;;3.67;2.00;;;;;;;;;;522442;28;1463;-60
2022/11/09 00:50:01;;;;;;;4.47;2.07;;;;;;;;;;522247;28;1227;-61
2022/11/09 00:50:17;;;;;;;3.95;2.00;;;;;;;;;;522001;28;1323;-62
2022/11/09 00:50:32;;;;;;;3.50;1.97;;;;;;;;;;522769;28;1284;-61
2022/11/09 00:50:49;;;;;;;4.10;2.00;;;;;;;;;;523578;28;1449;-61
2022/11/09 00:51:05;;;;;;;4.38;2.00;;;;;;;;;;521722;28;1251;-61
2022/11/09 00:51:21;;;;;;;3.15;2.05;;;;;;;;;;523127;28;1505;-61
2022/11/09 00:51:36;;;;;;;2.60;1.90;;;;;;;;;;523311;28;1510;-61
2022/11/09 00:51:52;;;;;;;3.13;1.80;;;;;;;;;;522494;28;1124;-61
2022/11/09 00:52:07;;;;;;;4.13;1.83;;;;;;;;;;518079;28;1125;-61
2022/11/09 00:52:22;;;;;;;4.45;2.00;;;;;;;;;;521339;28;1431;-61
2022/11/09 00:52:38;;;;;;;4.20;2.10;;;;;;;;;;522018;28;1518;-61
2022/11/09 00:52:53;;;;;;;3.63;2.00;;;;;;;;;;523601;28;1381;-61
2022/11/09 00:53:08;;;;;;;3.47;1.95;;;;;;;;;;520678;28;1176;-61
2022/11/09 00:53:25;;;;;;;4.57;2.10;;;;;;;;;;518705;28;1303;-61
2022/11/09 00:53:41;;;;;;;5.63;2.00;;;;;;;;;;519954;28;1305;-61
2022/11/09 00:53:57;;;;;;;5.60;1.98;;;;;;;;;;520924;28;1522;-61
2022/11/09 00:54:12;;;;;;;4.22;2.00;;;;;;;;;;523037;28;1403;-61
2022/11/09 00:54:27;;;;;;;4.33;2.00;;;;;;;;;;521511;28;1081;-61
2022/11/09 00:54:43;;;;;;;4.93;2.10;;;;;;;;;;523333;28;1379;-61
2022/11/09 00:54:58;;;;;;;5.30;2.03;;;;;;;;;;523862;28;1469;-61
2022/11/09 00:55:14;;;;;;;5.20;1.90;;;;;;;;;;523345;28;1426;-61
2022/11/09 00:55:29;;;;;;;3.80;1.90;;;;;;;;;;520807;28;1555;-61
2022/11/09 00:55:54;;;;;;;5.13;2.10;;;;;;;;;;519522;28;1133;-61
2022/11/09 00:56:10;;;;;;;5.00;2.10;;;;;;;;;;515869;28;1471;-61
2022/11/09 00:56:26;;;;;;;5.03;2.10;;;;;;;;;;518660;28;1463;-61
2022/11/09 00:56:41;;;;;;;5.90;2.17;;;;;;;;;;518986;28;1380;-62
2022/11/09 00:56:56;;;;;;;5.72;2.13;;;;;;;;;;519902;28;1145;-61
2022/11/09 00:57:12;;;;;;;5.27;1.90;;;;;;;;;;518031;28;1369;-61
2022/11/09 00:57:28;;;;;;;4.63;1.95;;;;;;;;;;520208;28;1287;-61
2022/11/09 00:57:43;;;;;;;3.77;2.03;;;;;;;;;;518520;28;1475;-61
2022/11/09 00:57:58;;;;;;;4.25;2.13;;;;;;;;;;520650;28;1080;-61
2022/11/09 00:58:13;;;;;;;3.57;2.13;;;;;;;;;;522843;28;1040;-61
2022/11/09 00:58:31;;;;;;;2.73;1.87;;;;;;;;;;519393;28;1200;-61
2022/11/09 00:58:46;;;;;;;3.60;1.95;;;;;;;;;;521150;28;1431;-61
2022/11/09 00:59:01;;;;;;;4.35;2.08;;;;;;;;;;520609;28;1410;-61
2022/11/09 00:59:17;;;;;;;3.40;1.93;;;;;;;;;;520541;28;1212;-61
2022/11/09 00:59:32;;;;;;;3.50;2.10;;;;;;;;;;519038;28;1097;-61
2022/11/09 00:59:47;;;;;;;4.35;2.17;;;;;;;;;;523229;28;1069;-61
2022/11/09 01:00:03;;;;;;;4.57;2.10;;;;;;;;;;521262;28;1221;-61
2022/11/09 01:00:21;;;;;;;3.80;1.98;;;;;;;;;;520791;28;1204;-61
2022/11/09 01:00:36;;;;;;;3.67;1.90;;;;;;;;;;519511;28;1259;-61
2022/11/09 01:00:52;;;;;;;3.97;2.00;;;;;;;;;;518659;28;1122;-61
2022/11/09 01:01:16;;;;;;;4.40;2.10;;;;;;;;;;516956;28;1161;-61
2022/11/09 01:01:33;;;;;;;4.70;2.03;;;;;;;;;;520207;28;1117;-61
2022/11/09 01:01:48;;;;;;;3.72;1.90;;;;;;;;;;519162;28;1512;-61
2022/11/09 01:02:03;;;;;;;3.97;2.00;;;;;;;;;;517919;28;1189;-61
2022/11/09 01:02:19;;;;;;;3.80;2.00;;;;;;;;;;520650;28;1070;-61
2022/11/09 01:02:34;;;;;;;3.20;2.10;;;;;;;;;;520002;28;1153;-61
2022/11/09 01:02:49;;;;;;;4.13;2.10;;;;;;;;;;522447;28;1101;-61
2022/11/09 01:03:05;;;;;;;4.57;1.90;;;;;;;;;;522758;28;1085;-61
2022/11/09 01:03:21;;;;;;;4.37;1.90;;;;;;;;;;520464;28;1286;-61
2022/11/09 01:03:37;;;;;;;3.50;1.90;;;;;;;;;;521967;28;1126;-61
2022/11/09 01:03:52;;;;;;;2.97;1.80;;;;;;;;;;523017;28;1082;-61
2022/11/09 01:04:08;;;;;;;3.97;1.90;;;;;;;;;;523362;28;1164;-61
2022/11/09 01:04:23;;;;;;;3.93;1.97;;;;;;;;;;521358;28;1973;-62
2022/11/09 01:04:38;;;;;;;3.47;1.90;;;;;;;;;;525599;28;1270;-61
2022/11/09 01:04:53;;;;;;;2.93;1.93;;;;;;;;;;522136;28;1604;-61
2022/11/09 01:05:09;;;;;;;4.00;1.90;;;;;;;;;;522132;28;1102;-61
2022/11/09 01:05:24;;;;;;;4.10;1.90;;;;;;;;;;521022;28;1181;-61
2022/11/09 01:05:39;;;;;;;3.50;1.98;;;;;;;;;;514883;28;1309;-61
2022/11/09 01:05:57;;;;;;;3.90;2.10;;;;;;;;;;519145;28;1110;-61
2022/11/09 01:06:15;;;;;;;3.17;2.00;;;;;;;;;;519050;28;1066;-61
2022/11/09 01:06:31;;;;;;;3.28;1.92;;;;;;;;;;519591;28;1296;-61
2022/11/09 01:06:46;;;;;;;3.30;2.00;;;;;;;;;;522534;28;1291;-61
2022/11/09 01:07:01;;;;;;;2.77;1.90;;;;;;;;;;520409;28;1493;-61
2022/11/09 01:07:17;;;;;;;3.10;1.90;;;;;;;;;;519788;28;1119;-61
2022/11/09 01:07:32;;;;;;;3.50;2.00;;;;;;;;;;521912;28;1098;-61
2022/11/09 01:07:47;;;;;;;3.47;2.00;;;;;;;;;;525450;28;1086;-61
2022/11/09 01:08:02;;;;;;;3.13;1.90;;;;;;;;;;523211;28;1030;-62
2022/11/09 01:08:18;;;;;;;3.57;1.90;;;;;;;;;;522897;28;1196;-62
2022/11/09 01:08:34;;;;;;;3.92;2.00;;;;;;;;;;520994;28;1074;-60
2022/11/09 01:08:50;;;;;;;5.53;2.20;;;;;;;;;;518617;28;1555;-62
2022/11/09 01:09:05;;;;;;;5.28;2.08;;;;;;;;;;519745;28;1189;-61
2022/11/09 01:09:20;;;;;;;3.80;1.90;;;;;;;;;;521311;28;1118;-61
2022/11/09 01:09:36;;;;;;;3.27;1.80;;;;;;;;;;523322;28;1117;-61
2022/11/09 01:09:51;;;;;;;3.13;1.90;;;;;;;;;;519133;28;1169;-61
2022/11/09 01:10:07;;;;;;;3.40;2.10;;;;;;;;;;518376;28;1293;-61
2022/11/09 01:10:22;;;;;;;3.60;2.17;;;;;;;;;;520653;28;1106;-61
2022/11/09 01:10:42;;;;;;;4.13;2.20;;;;;;;;;;520963;28;1232;-61
2022/11/09 01:11:06;;;;;;;4.13;1.98;;;;;;;;;;520466;28;1633;-62
2022/11/09 01:11:22;;;;;;;4.18;1.90;;;;;;;;;;520428;28;1181;-62
2022/11/09 01:11:37;;;;;;;4.03;1.95;;;;;;;;;;523392;28;1203;-61
2022/11/09 01:11:53;;;;;;;4.33;2.00;;;;;;;;;;522848;28;1122;-62
2022/11/09 01:12:08;;;;;;;5.88;2.10;;;;;;;;;;522380;28;1152;-61
2022/11/09 01:12:23;;;;;;;5.50;2.10;;;;;;;;;;522307;28;1215;-61
2022/11/09 01:12:38;;;;;;;3.67;1.93;;;;;;;;;;522877;28;1050;-62
2022/11/09 01:12:54;;;;;;;4.27;1.90;;;;;;;;;;521045;28;2649;-62
2022/11/09 01:13:11;;;;;;;3.97;1.95;;;;;;;;;;521388;28;1118;-61
2022/11/09 01:13:26;;;;;;;3.00;2.03;;;;;;;;;;520380;28;1410;-62
2022/11/09 01:13:42;;;;;;;4.00;2.10;;;;;;;;;;520588;28;1638;-61
2022/11/09 01:13:59;;;;;;;4.50;1.90;;;;;;;;;;519364;28;987;-62
2022/11/09 01:14:14;;;;;;;4.25;1.90;;;;;;;;;;517820;28;1027;-61
2022/11/09 01:14:29;;;;;;;4.20;1.90;;;;;;;;;;518784;28;1314;-63
2022/11/09 01:14:45;;;;;;;5.33;1.93;;;;;;;;;;518726;28;2375;-62
2022/11/09 01:15:00;;;;;;;4.85;2.00;;;;;;;;;;521399;28;1046;-62
2022/11/09 01:15:15;;;;;;;4.57;2.00;;;;;;;;;;521522;28;1167;-62
2022/11/09 01:15:31;;;;;;;4.20;2.00;;;;;;;;;;519450;28;1136;-61
2022/11/09 01:15:52;;;;;;;3.25;1.90;;;;;;;;;;518341;28;1235;-61
2022/11/09 01:16:12;;;;;;;3.95;2.00;;;;;;;;;;520390;28;1487;-61
2022/11/09 01:16:28;;;;;;;3.42;2.00;;;;;;;;;;518431;28;1486;-62
2022/11/09 01:16:43;;;;;;;3.00;1.83;;;;;;;;;;519927;28;1121;-62
2022/11/09 01:16:58;;;;;;;3.13;1.80;;;;;;;;;;517391;28;1413;-61
2022/11/09 01:17:14;;;;;;;3.23;2.00;;;;;;;;;;520238;28;1367;-62
2022/11/09 01:17:29;;;;;;;3.90;2.10;;;;;;;;;;518472;28;1378;-61
2022/11/09 01:17:44;;;;;;;3.77;2.00;;;;;;;;;;522854;28;1212;-62
2022/11/09 01:18:00;;;;;;;3.43;1.90;;;;;;;;;;520081;28;1254;-61
2022/11/09 01:18:17;;;;;;;3.70;2.00;;;;;;;;;;518869;28;1078;-61
2022/11/09 01:18:32;;;;;;;3.70;2.00;;;;;;;;;;516650;28;1551;-62
2022/11/09 01:18:52;;;;;;;4.03;2.00;;;;;;;;;;516203;28;1458;-61
2022/11/09 01:19:07;;;;;;;4.50;1.98;;;;;;;;;;516602;28;1314;-61
2022/11/09 01:19:22;;;;;;;4.33;1.93;;;;;;;;;;520317;28;1010;-62
2022/11/09 01:19:37;;;;;;;3.67;1.90;;;;;;;;;;521286;28;1200;-62
2022/11/09 01:19:53;;;;;;;3.80;1.97;;;;;;;;;;519430;28;1236;-62
2022/11/09 01:20:09;;;;;;;3.10;1.88;;;;;;;;;;520235;28;1187;-61
2022/11/09 01:20:24;;;;;;;3.88;1.98;;;;;;;;;;521116;28;1144;-62
2022/11/09 01:20:41;;;;;;;4.13;2.10;;;;;;;;;;521195;28;1154;-61
2022/11/09 01:20:56;;;;;;;4.10;2.10;;;;;;;;;;521020;28;1543;-62
2022/11/09 01:21:14;;;;;;;3.97;2.00;;;;;;;;;;520453;28;1192;-62
2022/11/09 01:21:29;;;;;;;3.60;1.92;;;;;;;;;;518783;28;1091;-61
2022/11/09 01:21:44;;;;;;;3.67;2.10;;;;;;;;;;519892;28;983;-62
2022/11/09 01:22:00;;;;;;;3.05;2.10;;;;;;;;;;520288;28;1428;-61
2022/11/09 01:22:16;;;;;;;3.73;2.00;;;;;;;;;;521589;28;1185;-61
2022/11/09 01:22:31;;;;;;;5.00;2.00;;;;;;;;;;520112;28;1462;-62
2022/11/09 01:22:46;;;;;;;4.20;2.10;;;;;;;;;;519364;28;1216;-61
2022/11/09 01:23:02;;;;;;;3.53;2.03;;;;;;;;;;520823;28;1137;-62
2022/11/09 01:23:18;;;;;;;3.23;1.80;;;;;;;;;;520110;28;1294;-61
2022/11/09 01:23:34;;;;;;;4.22;1.92;;;;;;;;;;519501;28;1216;-61
2022/11/09 01:23:49;;;;;;;4.45;2.00;;;;;;;;;;520146;28;1161;-60
2022/11/09 01:24:04;;;;;;;3.13;1.90;;;;;;;;;;517276;28;1299;-61
2022/11/09 01:24:20;;;;;;;4.45;2.03;;;;;;;;;;519290;28;2008;-61
2022/11/09 01:24:35;;;;;;;4.70;2.10;;;;;;;;;;519403;28;1270;-62
2022/11/09 01:24:50;;;;;;;4.20;2.10;;;;;;;;;;520960;28;1231;-62
2022/11/09 01:25:06;;;;;;;3.77;2.03;;;;;;;;;;518839;28;1268;-61
2022/11/09 01:25:21;;;;;;;3.13;2.00;;;;;;;;;;521650;28;1153;-62
2022/11/09 01:25:37;;;;;;;3.60;1.97;;;;;;;;;;520264;28;1163;-62
2022/11/09 01:26:00;;;;;;;3.63;2.00;;;;;;;;;;516954;28;2314;-61
2022/11/09 01:26:15;;;;;;;3.65;2.30;;;;;;;;;;519690;28;1138;-61
2022/11/09 01:26:31;;;;;;;5.57;2.30;;;;;;;;;;519522;28;1183;-62
2022/11/09 01:26:46;;;;;;;6.03;2.20;;;;;;;;;;517765;28;1107;-62
2022/11/09 01:27:01;;;;;;;3.60;1.97;;;;;;;;;;522455;28;1141;-61
2022/11/09 01:27:17;;;;;;;3.28;1.77;;;;;;;;;;522773;28;1196;-61
2022/11/09 01:27:33;;;;;;;4.70;1.90;;;;;;;;;;521107;28;1165;-62
2022/11/09 01:27:48;;;;;;;4.28;2.10;;;;;;;;;;520911;28;1129;-62
2022/11/09 01:28:05;;;;;;;4.40;2.10;;;;;;;;;;519488;28;1203;-61
2022/11/09 01:28:20;;;;;;;5.30;1.92;;;;;;;;;;520284;28;1378;-61
2022/11/09 01:28:36;;;;;;;4.20;2.00;;;;;;;;;;522860;28;1145;-61
2022/11/09 01:28:51;;;;;;;3.75;2.10;;;;;;;;;;518858;28;1115;-62
2022/11/09 01:29:06;;;;;;;4.30;1.93;;;;;;;;;;519772;28;1203;-62
2022/11/09 01:29:21;;;;;;;4.53;1.90;;;;;;;;;;521650;28;1273;-61
2022/11/09 01:29:37;;;;;;;4.13;2.00;;;;;;;;;;520971;28;1335;-61
2022/11/09 01:29:52;;;;;;;4.13;2.00;;;;;;;;;;520841;28;1145;-61
2022/11/09 01:30:07;;;;;;;3.63;1.90;;;;;;;;;;519495;28;1066;-61
2022/11/09 01:30:23;;;;;;;2.97;1.83;;;;;;;;;;522125;28;1343;-62
2022/11/09 01:30:41;;;;;;;4.67;1.87;;;;;;;;;;519169;28;1200;-62
2022/11/09 01:31:02;;;;;;;3.90;1.90;;;;;;;;;;518828;28;1285;-61
2022/11/09 01:31:19;;;;;;;2.97;1.88;;;;;;;;;;519210;28;1753;-62
2022/11/09 01:31:35;;;;;;;3.35;2.00;;;;;;;;;;517502;28;1412;-61
2022/11/09 01:31:50;;;;;;;3.93;2.00;;;;;;;;;;517681;28;1596;-61
2022/11/09 01:32:05;;;;;;;3.50;2.00;;;;;;;;;;518039;28;1054;-62
2022/11/09 01:32:20;;;;;;;3.83;2.03;;;;;;;;;;518378;28;1051;-62
2022/11/09 01:32:36;;;;;;;4.88;2.00;;;;;;;;;;519799;28;1165;-61
2022/11/09 01:32:52;;;;;;;3.40;1.80;;;;;;;;;;516527;28;1232;-62
2022/11/09 01:33:10;;;;;;;3.35;1.90;;;;;;;;;;515906;28;1287;-62
2022/11/09 01:33:25;;;;;;;5.60;2.10;;;;;;;;;;518236;28;1501;-61
2022/11/09 01:33:41;;;;;;;5.47;2.13;;;;;;;;;;519851;28;1282;-62
2022/11/09 01:33:56;;;;;;;4.60;2.10;;;;;;;;;;522751;28;1525;-61
2022/11/09 01:34:12;;;;;;;4.00;1.92;;;;;;;;;;522332;28;1558;-62
2022/11/09 01:34:28;;;;;;;2.87;1.90;;;;;;;;;;519869;28;1237;-61
2022/11/09 01:34:43;;;;;;;3.20;1.92;;;;;;;;;;520473;28;1904;-61
2022/11/09 01:34:59;;;;;;;4.88;2.00;;;;;;;;;;520436;28;1307;-61
2022/11/09 01:35:14;;;;;;;5.47;2.10;;;;;;;;;;520581;28;1198;-61
2022/11/09 01:35:33;;;;;;;4.80;2.00;;;;;;;;;;520706;28;1146;-61
2022/11/09 01:35:48;;;;;;;3.92;1.70;;;;;;;;;;518589;28;1170;-62
2022/11/09 01:36:06;;;;;;;3.60;1.80;;;;;;;;;;518286;28;1424;-61
2022/11/09 01:36:23;;;;;;;3.38;1.80;;;;;;;;;;519987;28;2157;-62
2022/11/09 01:36:38;;;;;;;3.65;1.90;;;;;;;;;;521075;28;1341;-61
2022/11/09 01:36:53;;;;;;;4.53;2.20;;;;;;;;;;522154;28;1227;-62
2022/11/09 01:37:09;;;;;;;3.63;2.10;;;;;;;;;;517733;28;1243;-62
2022/11/09 01:37:24;;;;;;;3.23;1.93;;;;;;;;;;520110;28;1420;-62
2022/11/09 01:37:39;;;;;;;4.03;1.90;;;;;;;;;;522399;28;1217;-62
2022/11/09 01:37:54;;;;;;;4.25;1.95;;;;;;;;;;521372;28;1637;-62